sensor_id;sensor_type;location;lat;lon;timestamp;P1;durP1;ratioP1;P2;durP2;ratioP2
36185;SDS011;22228;53.222;7.446;2023-04-20T00:00:28;2.70;;;1.90;;
36185;SDS011;22228;53.222;7.446;2023-04-20T00:02:49;3.53;;;1.80;;
36185;SDS011;22228;53.222;7.446;2023-04-20T00:05:09;3.83;;;1.80;;
36185;SDS011;22228;53.222;7.446;2023-04-20T00:07:31;7.30;;;2.33;;
36185;SDS011;22228;53.222;7.446;2023-04-20T00:09:53;9.77;;;3.00;;
36185;SDS011;22228;53.222;7.446;2023-04-20T00:12:13;6.70;;;2.87;;
36185;SDS011;22228;53.222;7.446;2023-04-20T00:14:34;4.80;;;2.07;;
36185;SDS011;22228;53.222;7.446;2023-04-20T03:02:59;3.10;;;1.00;;
36185;SDS011;22228;53.222;7.446;2023-04-20T03:05:21;2.97;;;1.20;;
36185;SDS011;22228;53.222;7.446;2023-04-20T03:07:42;4.03;;;1.30;;
36185;SDS011;22228;53.222;7.446;2023-04-20T03:10:04;5.23;;;1.53;;
36185;SDS011;22228;53.222;7.446;2023-04-20T03:12:47;2.10;;;1.20;;
36185;SDS011;22228;53.222;7.446;2023-04-20T03:15:14;2.50;;;1.53;;
36185;SDS011;22228;53.222;7.446;2023-04-20T03:17:49;3.87;;;1.37;;
36185;SDS011;22228;53.222;7.446;2023-04-20T03:20:10;3.23;;;1.20;;
36185;SDS011;22228;53.222;7.446;2023-04-20T03:22:32;1.53;;;1.20;;
36185;SDS011;22228;53.222;7.446;2023-04-20T03:24:54;1.00;;;1.00;;
36185;SDS011;22228;53.222;7.446;2023-04-20T03:27:41;1.63;;;1.17;;
36185;SDS011;22228;53.222;7.446;2023-04-20T03:30:05;1.43;;;1.07;;
36185;SDS011;22228;53.222;7.446;2023-04-20T03:32:27;6.07;;;1.40;;
36185;SDS011;22228;53.222;7.446;2023-04-20T03:34:50;2.60;;;1.10;;
36185;SDS011;22228;53.222;7.446;2023-04-20T03:37:10;5.20;;;1.40;;
36185;SDS011;22228;53.222;7.446;2023-04-20T03:39:30;1.80;;;1.00;;
36185;SDS011;22228;53.222;7.446;2023-04-20T03:41:51;2.50;;;1.07;;
36185;SDS011;22228;53.222;7.446;2023-04-20T03:44:11;1.43;;;1.03;;
36185;SDS011;22228;53.222;7.446;2023-04-20T03:46:32;2.30;;;1.20;;
36185;SDS011;22228;53.222;7.446;2023-04-20T03:48:54;1.63;;;1.10;;
36185;SDS011;22228;53.222;7.446;2023-04-20T03:51:16;3.73;;;1.50;;
36185;SDS011;22228;53.222;7.446;2023-04-20T03:53:37;3.03;;;1.30;;
36185;SDS011;22228;53.222;7.446;2023-04-20T03:55:59;4.83;;;1.30;;
36185;SDS011;22228;53.222;7.446;2023-04-20T03:58:21;3.00;;;1.67;;
36185;SDS011;22228;53.222;7.446;2023-04-20T04:01:00;3.03;;;1.20;;
36185;SDS011;22228;53.222;7.446;2023-04-20T04:03:23;3.67;;;1.27;;
36185;SDS011;22228;53.222;7.446;2023-04-20T04:05:43;1.63;;;1.43;;
36185;SDS011;22228;53.222;7.446;2023-04-20T04:08:05;2.23;;;1.33;;
36185;SDS011;22228;53.222;7.446;2023-04-20T04:10:26;1.60;;;1.20;;
36185;SDS011;22228;53.222;7.446;2023-04-20T04:12:47;4.87;;;1.27;;
36185;SDS011;22228;53.222;7.446;2023-04-20T04:15:08;2.40;;;1.20;;
36185;SDS011;22228;53.222;7.446;2023-04-20T04:17:37;2.77;;;1.30;;
36185;SDS011;22228;53.222;7.446;2023-04-20T04:19:58;2.23;;;1.20;;
36185;SDS011;22228;53.222;7.446;2023-04-20T04:22:18;1.33;;;1.10;;
36185;SDS011;22228;53.222;7.446;2023-04-20T04:25:00;2.97;;;1.20;;
36185;SDS011;22228;53.222;7.446;2023-04-20T04:27:21;3.17;;;1.37;;
36185;SDS011;22228;53.222;7.446;2023-04-20T04:29:47;2.43;;;1.30;;
36185;SDS011;22228;53.222;7.446;2023-04-20T04:32:10;1.47;;;1.37;;
36185;SDS011;22228;53.222;7.446;2023-04-20T04:34:31;1.30;;;1.10;;
36185;SDS011;22228;53.222;7.446;2023-04-20T04:36:52;1.97;;;0.83;;
36185;SDS011;22228;53.222;7.446;2023-04-20T04:39:20;1.20;;;1.10;;
36185;SDS011;22228;53.222;7.446;2023-04-20T04:41:56;5.70;;;1.33;;
36185;SDS011;22228;53.222;7.446;2023-04-20T04:44:24;1.93;;;1.40;;
36185;SDS011;22228;53.222;7.446;2023-04-20T04:46:46;2.17;;;1.80;;
36185;SDS011;22228;53.222;7.446;2023-04-20T04:49:07;2.67;;;1.33;;
36185;SDS011;22228;53.222;7.446;2023-04-20T04:51:28;1.40;;;1.20;;
36185;SDS011;22228;53.222;7.446;2023-04-20T04:53:49;4.37;;;1.60;;
36185;SDS011;22228;53.222;7.446;2023-04-20T04:56:10;1.67;;;1.00;;
36185;SDS011;22228;53.222;7.446;2023-04-20T04:58:32;2.30;;;1.63;;
36185;SDS011;22228;53.222;7.446;2023-04-20T05:00:52;1.60;;;1.17;;
36185;SDS011;22228;53.222;7.446;2023-04-20T05:03:13;3.80;;;1.50;;
36185;SDS011;22228;53.222;7.446;2023-04-20T05:05:34;3.03;;;1.20;;
36185;SDS011;22228;53.222;7.446;2023-04-20T05:07:54;1.97;;;1.50;;
36185;SDS011;22228;53.222;7.446;2023-04-20T05:10:15;2.20;;;1.33;;
36185;SDS011;22228;53.222;7.446;2023-04-20T05:12:35;1.30;;;1.20;;
36185;SDS011;22228;53.222;7.446;2023-04-20T05:14:58;2.87;;;1.30;;
36185;SDS011;22228;53.222;7.446;2023-04-20T05:17:18;3.27;;;1.20;;
36185;SDS011;22228;53.222;7.446;2023-04-20T05:19:39;4.30;;;1.30;;
36185;SDS011;22228;53.222;7.446;2023-04-20T05:21:59;1.40;;;1.30;;
36185;SDS011;22228;53.222;7.446;2023-04-20T05:24:20;3.33;;;1.13;;
36185;SDS011;22228;53.222;7.446;2023-04-20T05:26:40;4.03;;;1.23;;
36185;SDS011;22228;53.222;7.446;2023-04-20T05:29:01;2.67;;;1.10;;
36185;SDS011;22228;53.222;7.446;2023-04-20T05:31:23;3.10;;;1.20;;
36185;SDS011;22228;53.222;7.446;2023-04-20T05:33:43;4.30;;;1.20;;
36185;SDS011;22228;53.222;7.446;2023-04-20T05:36:07;2.17;;;1.10;;
36185;SDS011;22228;53.222;7.446;2023-04-20T05:38:27;2.80;;;1.17;;
36185;SDS011;22228;53.222;7.446;2023-04-20T05:40:48;2.30;;;1.10;;
36185;SDS011;22228;53.222;7.446;2023-04-20T05:43:08;1.30;;;1.20;;
36185;SDS011;22228;53.222;7.446;2023-04-20T05:45:29;2.50;;;1.20;;
36185;SDS011;22228;53.222;7.446;2023-04-20T05:47:53;1.77;;;1.10;;
36185;SDS011;22228;53.222;7.446;2023-04-20T05:50:14;1.77;;;1.30;;
36185;SDS011;22228;53.222;7.446;2023-04-20T05:52:34;2.27;;;1.20;;
36185;SDS011;22228;53.222;7.446;2023-04-20T05:54:55;1.50;;;1.40;;
36185;SDS011;22228;53.222;7.446;2023-04-20T05:57:17;3.43;;;1.33;;
36185;SDS011;22228;53.222;7.446;2023-04-20T05:59:38;3.10;;;1.50;;
36185;SDS011;22228;53.222;7.446;2023-04-20T06:01:58;3.53;;;1.30;;
36185;SDS011;22228;53.222;7.446;2023-04-20T06:04:21;1.97;;;1.63;;
36185;SDS011;22228;53.222;7.446;2023-04-20T06:06:41;3.83;;;1.70;;
36185;SDS011;22228;53.222;7.446;2023-04-20T06:09:02;3.00;;;1.70;;
36185;SDS011;22228;53.222;7.446;2023-04-20T06:11:22;2.30;;;2.10;;
36185;SDS011;22228;53.222;7.446;2023-04-20T06:13:43;1.97;;;1.70;;
36185;SDS011;22228;53.222;7.446;2023-04-20T06:16:03;2.30;;;2.10;;
36185;SDS011;22228;53.222;7.446;2023-04-20T06:18:27;3.63;;;1.80;;
36185;SDS011;22228;53.222;7.446;2023-04-20T06:20:49;2.97;;;2.10;;
36185;SDS011;22228;53.222;7.446;2023-04-20T06:23:09;2.03;;;1.83;;
36185;SDS011;22228;53.222;7.446;2023-04-20T06:25:31;2.73;;;2.13;;
36185;SDS011;22228;53.222;7.446;2023-04-20T06:27:52;2.33;;;2.13;;
36185;SDS011;22228;53.222;7.446;2023-04-20T06:30:13;2.53;;;2.10;;
36185;SDS011;22228;53.222;7.446;2023-04-20T06:32:33;3.03;;;2.50;;
36185;SDS011;22228;53.222;7.446;2023-04-20T06:34:53;3.47;;;2.47;;
36185;SDS011;22228;53.222;7.446;2023-04-20T06:37:15;2.57;;;2.37;;
36185;SDS011;22228;53.222;7.446;2023-04-20T06:39:37;3.93;;;2.30;;
36185;SDS011;22228;53.222;7.446;2023-04-20T06:41:58;3.50;;;2.70;;
36185;SDS011;22228;53.222;7.446;2023-04-20T06:44:19;4.30;;;2.70;;
36185;SDS011;22228;53.222;7.446;2023-04-20T06:46:40;4.83;;;3.00;;
36185;SDS011;22228;53.222;7.446;2023-04-20T06:49:01;3.20;;;2.87;;
36185;SDS011;22228;53.222;7.446;2023-04-20T06:51:22;3.53;;;2.90;;
36185;SDS011;22228;53.222;7.446;2023-04-20T06:53:44;3.00;;;2.80;;
36185;SDS011;22228;53.222;7.446;2023-04-20T06:56:04;4.20;;;3.13;;
36185;SDS011;22228;53.222;7.446;2023-04-20T06:58:25;3.17;;;2.87;;
36185;SDS011;22228;53.222;7.446;2023-04-20T07:00:46;4.37;;;3.00;;
36185;SDS011;22228;53.222;7.446;2023-04-20T07:03:06;5.00;;;3.33;;
36185;SDS011;22228;53.222;7.446;2023-04-20T07:05:27;3.57;;;2.90;;
36185;SDS011;22228;53.222;7.446;2023-04-20T07:07:47;3.83;;;3.47;;
36185;SDS011;22228;53.222;7.446;2023-04-20T07:10:11;3.20;;;2.90;;
36185;SDS011;22228;53.222;7.446;2023-04-20T07:12:32;4.60;;;3.13;;
36185;SDS011;22228;53.222;7.446;2023-04-20T07:14:53;3.43;;;3.20;;
36185;SDS011;22228;53.222;7.446;2023-04-20T07:17:14;6.13;;;2.93;;
36185;SDS011;22228;53.222;7.446;2023-04-20T07:19:34;3.87;;;3.30;;
36185;SDS011;22228;53.222;7.446;2023-04-20T07:21:55;3.47;;;3.03;;
36185;SDS011;22228;53.222;7.446;2023-04-20T07:24:15;3.67;;;3.27;;
36185;SDS011;22228;53.222;7.446;2023-04-20T07:26:37;4.70;;;3.10;;
36185;SDS011;22228;53.222;7.446;2023-04-20T07:28:57;3.63;;;3.30;;
36185;SDS011;22228;53.222;7.446;2023-04-20T07:31:18;4.07;;;3.10;;
36185;SDS011;22228;53.222;7.446;2023-04-20T07:33:39;4.63;;;3.20;;
36185;SDS011;22228;53.222;7.446;2023-04-20T07:35:59;3.47;;;3.17;;
36185;SDS011;22228;53.222;7.446;2023-04-20T07:38:19;3.53;;;3.23;;
36185;SDS011;22228;53.222;7.446;2023-04-20T07:40:40;3.57;;;3.17;;
36185;SDS011;22228;53.222;7.446;2023-04-20T07:43:02;3.73;;;3.17;;
36185;SDS011;22228;53.222;7.446;2023-04-20T07:45:22;4.13;;;3.07;;
36185;SDS011;22228;53.222;7.446;2023-04-20T07:47:43;3.70;;;3.27;;
36185;SDS011;22228;53.222;7.446;2023-04-20T07:50:05;5.20;;;3.60;;
36185;SDS011;22228;53.222;7.446;2023-04-20T07:52:26;4.47;;;3.47;;
36185;SDS011;22228;53.222;7.446;2023-04-20T07:54:46;7.93;;;4.03;;
36185;SDS011;22228;53.222;7.446;2023-04-20T07:57:07;6.93;;;3.77;;
36185;SDS011;22228;53.222;7.446;2023-04-20T07:59:29;3.70;;;3.40;;
36185;SDS011;22228;53.222;7.446;2023-04-20T08:01:50;3.90;;;3.60;;
36185;SDS011;22228;53.222;7.446;2023-04-20T08:04:11;4.50;;;4.10;;
36185;SDS011;22228;53.222;7.446;2023-04-20T08:06:31;5.60;;;3.83;;
36185;SDS011;22228;53.222;7.446;2023-04-20T08:08:51;5.67;;;3.77;;
36185;SDS011;22228;53.222;7.446;2023-04-20T08:11:12;5.10;;;3.67;;
36185;SDS011;22228;53.222;7.446;2023-04-20T08:13:33;5.60;;;3.60;;
36185;SDS011;22228;53.222;7.446;2023-04-20T08:15:56;6.30;;;3.83;;
36185;SDS011;22228;53.222;7.446;2023-04-20T08:18:16;6.60;;;4.00;;
36185;SDS011;22228;53.222;7.446;2023-04-20T08:20:37;7.27;;;5.00;;
36185;SDS011;22228;53.222;7.446;2023-04-20T08:22:57;9.40;;;7.53;;
36185;SDS011;22228;53.222;7.446;2023-04-20T08:25:18;7.43;;;3.70;;
36185;SDS011;22228;53.222;7.446;2023-04-20T08:27:38;4.67;;;4.07;;
36185;SDS011;22228;53.222;7.446;2023-04-20T08:29:59;7.27;;;3.87;;
36185;SDS011;22228;53.222;7.446;2023-04-20T08:32:23;6.97;;;4.00;;
36185;SDS011;22228;53.222;7.446;2023-04-20T08:34:44;9.20;;;4.40;;
36185;SDS011;22228;53.222;7.446;2023-04-20T08:37:05;4.37;;;3.97;;
36185;SDS011;22228;53.222;7.446;2023-04-20T08:39:25;9.83;;;4.17;;
36185;SDS011;22228;53.222;7.446;2023-04-20T08:41:46;4.20;;;3.80;;
36185;SDS011;22228;53.222;7.446;2023-04-20T08:44:11;3.33;;;3.03;;
36185;SDS011;22228;53.222;7.446;2023-04-20T08:46:31;3.87;;;3.57;;
36185;SDS011;22228;53.222;7.446;2023-04-20T08:48:53;5.13;;;3.30;;
36185;SDS011;22228;53.222;7.446;2023-04-20T08:51:14;4.47;;;3.53;;
36185;SDS011;22228;53.222;7.446;2023-04-20T08:53:35;4.73;;;3.70;;
36185;SDS011;22228;53.222;7.446;2023-04-20T08:55:56;4.13;;;3.60;;
36185;SDS011;22228;53.222;7.446;2023-04-20T08:58:17;5.77;;;3.67;;
36185;SDS011;22228;53.222;7.446;2023-04-20T09:00:44;5.47;;;3.70;;
36185;SDS011;22228;53.222;7.446;2023-04-20T09:03:05;7.03;;;4.20;;
36185;SDS011;22228;53.222;7.446;2023-04-20T09:05:27;3.80;;;3.40;;
36185;SDS011;22228;53.222;7.446;2023-04-20T09:07:50;6.17;;;3.93;;
36185;SDS011;22228;53.222;7.446;2023-04-20T09:10:11;7.67;;;3.77;;
36185;SDS011;22228;53.222;7.446;2023-04-20T09:12:39;8.17;;;4.33;;
36185;SDS011;22228;53.222;7.446;2023-04-20T09:15:00;6.50;;;3.70;;
36185;SDS011;22228;53.222;7.446;2023-04-20T09:17:31;4.57;;;3.37;;
36185;SDS011;22228;53.222;7.446;2023-04-20T09:19:52;4.83;;;3.67;;
36185;SDS011;22228;53.222;7.446;2023-04-20T09:22:14;5.47;;;3.47;;
36185;SDS011;22228;53.222;7.446;2023-04-20T09:24:35;6.43;;;3.60;;
36185;SDS011;22228;53.222;7.446;2023-04-20T09:26:57;4.87;;;3.67;;
36185;SDS011;22228;53.222;7.446;2023-04-20T09:29:20;4.80;;;4.37;;
36185;SDS011;22228;53.222;7.446;2023-04-20T09:31:43;6.93;;;4.23;;
36185;SDS011;22228;53.222;7.446;2023-04-20T09:34:03;4.40;;;3.83;;
36185;SDS011;22228;53.222;7.446;2023-04-20T09:36:33;5.20;;;3.97;;
36185;SDS011;22228;53.222;7.446;2023-04-20T09:39:04;4.93;;;4.43;;
36185;SDS011;22228;53.222;7.446;2023-04-20T09:41:26;4.37;;;3.97;;
36185;SDS011;22228;53.222;7.446;2023-04-20T09:43:46;6.43;;;3.83;;
36185;SDS011;22228;53.222;7.446;2023-04-20T09:46:07;6.93;;;4.40;;
36185;SDS011;22228;53.222;7.446;2023-04-20T09:48:28;5.20;;;4.30;;
36185;SDS011;22228;53.222;7.446;2023-04-20T09:50:49;5.40;;;4.47;;
36185;SDS011;22228;53.222;7.446;2023-04-20T09:53:09;4.93;;;4.30;;
36185;SDS011;22228;53.222;7.446;2023-04-20T09:55:31;6.17;;;4.23;;
36185;SDS011;22228;53.222;7.446;2023-04-20T09:57:52;6.33;;;4.10;;
36185;SDS011;22228;53.222;7.446;2023-04-20T10:00:13;7.37;;;4.23;;
36185;SDS011;22228;53.222;7.446;2023-04-20T10:02:33;4.50;;;4.10;;
36185;SDS011;22228;53.222;7.446;2023-04-20T10:04:54;8.30;;;5.10;;
36185;SDS011;22228;53.222;7.446;2023-04-20T10:07:21;7.83;;;4.87;;
36185;SDS011;22228;53.222;7.446;2023-04-20T10:09:42;6.27;;;4.60;;
36185;SDS011;22228;53.222;7.446;2023-04-20T10:12:08;5.23;;;4.50;;
36185;SDS011;22228;53.222;7.446;2023-04-20T10:14:30;5.80;;;4.93;;
36185;SDS011;22228;53.222;7.446;2023-04-20T10:16:57;5.97;;;5.37;;
36185;SDS011;22228;53.222;7.446;2023-04-20T10:19:19;6.57;;;4.87;;
36185;SDS011;22228;53.222;7.446;2023-04-20T10:21:46;5.00;;;4.57;;
36185;SDS011;22228;53.222;7.446;2023-04-20T10:24:07;6.47;;;5.00;;
36185;SDS011;22228;53.222;7.446;2023-04-20T10:26:35;5.57;;;5.00;;
36185;SDS011;22228;53.222;7.446;2023-04-20T10:28:57;5.77;;;4.93;;
36185;SDS011;22228;53.222;7.446;2023-04-20T10:31:21;7.60;;;5.93;;
36185;SDS011;22228;53.222;7.446;2023-04-20T10:33:49;6.53;;;5.90;;
36185;SDS011;22228;53.222;7.446;2023-04-20T10:36:11;6.97;;;5.60;;
36185;SDS011;22228;53.222;7.446;2023-04-20T10:38:42;6.43;;;5.83;;
36185;SDS011;22228;53.222;7.446;2023-04-20T10:41:05;7.43;;;5.53;;
36185;SDS011;22228;53.222;7.446;2023-04-20T10:43:26;10.03;;;6.43;;
36185;SDS011;22228;53.222;7.446;2023-04-20T10:45:48;7.33;;;6.17;;
36185;SDS011;22228;53.222;7.446;2023-04-20T10:48:09;8.77;;;6.53;;
36185;SDS011;22228;53.222;7.446;2023-04-20T10:50:29;6.80;;;5.70;;
36185;SDS011;22228;53.222;7.446;2023-04-20T10:52:51;8.77;;;6.00;;
36185;SDS011;22228;53.222;7.446;2023-04-20T10:55:18;7.67;;;6.67;;
36185;SDS011;22228;53.222;7.446;2023-04-20T10:57:38;6.57;;;5.83;;
36185;SDS011;22228;53.222;7.446;2023-04-20T11:00:12;6.47;;;5.83;;
36185;SDS011;22228;53.222;7.446;2023-04-20T11:02:35;7.17;;;5.90;;
36185;SDS011;22228;53.222;7.446;2023-04-20T11:05:09;7.73;;;6.10;;
36185;SDS011;22228;53.222;7.446;2023-04-20T11:07:30;7.07;;;6.40;;
36185;SDS011;22228;53.222;7.446;2023-04-20T11:09:52;7.30;;;6.40;;
36185;SDS011;22228;53.222;7.446;2023-04-20T11:12:13;7.27;;;6.10;;
36185;SDS011;22228;53.222;7.446;2023-04-20T11:14:34;7.50;;;6.37;;
36185;SDS011;22228;53.222;7.446;2023-04-20T11:16:56;8.00;;;6.60;;
36185;SDS011;22228;53.222;7.446;2023-04-20T11:19:22;7.80;;;7.03;;
36185;SDS011;22228;53.222;7.446;2023-04-20T11:21:44;7.10;;;6.03;;
36185;SDS011;22228;53.222;7.446;2023-04-20T11:24:04;7.27;;;6.63;;
36185;SDS011;22228;53.222;7.446;2023-04-20T11:26:36;7.50;;;6.53;;
36185;SDS011;22228;53.222;7.446;2023-04-20T11:28:58;6.63;;;6.13;;
36185;SDS011;22228;53.222;7.446;2023-04-20T11:31:19;10.13;;;7.00;;
36185;SDS011;22228;53.222;7.446;2023-04-20T11:33:39;9.57;;;6.87;;
36185;SDS011;22228;53.222;7.446;2023-04-20T11:36:01;8.20;;;6.33;;
36185;SDS011;22228;53.222;7.446;2023-04-20T11:40:48;8.67;;;7.40;;
36185;SDS011;22228;53.222;7.446;2023-04-20T11:43:09;7.90;;;7.10;;
36185;SDS011;22228;53.222;7.446;2023-04-20T11:45:30;8.27;;;6.77;;
36185;SDS011;22228;53.222;7.446;2023-04-20T11:47:52;8.17;;;7.00;;
36185;SDS011;22228;53.222;7.446;2023-04-20T11:50:13;8.07;;;7.33;;
36185;SDS011;22228;53.222;7.446;2023-04-20T11:52:35;7.63;;;6.83;;
36185;SDS011;22228;53.222;7.446;2023-04-20T11:54:55;7.53;;;6.90;;
36185;SDS011;22228;53.222;7.446;2023-04-20T11:57:16;8.73;;;7.07;;
36185;SDS011;22228;53.222;7.446;2023-04-20T11:59:36;6.80;;;6.00;;
36185;SDS011;22228;53.222;7.446;2023-04-20T12:01:57;6.43;;;5.83;;
36185;SDS011;22228;53.222;7.446;2023-04-20T12:04:20;6.40;;;5.70;;
36185;SDS011;22228;53.222;7.446;2023-04-20T12:06:41;6.20;;;5.37;;
36185;SDS011;22228;53.222;7.446;2023-04-20T12:09:02;9.70;;;6.33;;
36185;SDS011;22228;53.222;7.446;2023-04-20T12:11:24;6.50;;;5.87;;
36185;SDS011;22228;53.222;7.446;2023-04-20T12:13:45;6.70;;;6.03;;
36185;SDS011;22228;53.222;7.446;2023-04-20T12:16:06;6.57;;;5.97;;
36185;SDS011;22228;53.222;7.446;2023-04-20T12:18:27;7.77;;;6.03;;
36185;SDS011;22228;53.222;7.446;2023-04-20T12:20:47;7.10;;;6.40;;
36185;SDS011;22228;53.222;7.446;2023-04-20T12:23:08;6.77;;;6.07;;
36185;SDS011;22228;53.222;7.446;2023-04-20T12:25:30;7.63;;;6.50;;
36185;SDS011;22228;53.222;7.446;2023-04-20T12:27:50;7.13;;;6.33;;
36185;SDS011;22228;53.222;7.446;2023-04-20T12:30:11;8.17;;;7.17;;
36185;SDS011;22228;53.222;7.446;2023-04-20T12:32:34;7.60;;;6.90;;
36185;SDS011;22228;53.222;7.446;2023-04-20T12:34:54;8.23;;;7.40;;
36185;SDS011;22228;53.222;7.446;2023-04-20T12:37:15;8.97;;;6.17;;
36185;SDS011;22228;53.222;7.446;2023-04-20T12:39:35;7.03;;;6.33;;
36185;SDS011;22228;53.222;7.446;2023-04-20T12:41:57;7.03;;;6.33;;
36185;SDS011;22228;53.222;7.446;2023-04-20T12:44:17;8.20;;;6.30;;
36185;SDS011;22228;53.222;7.446;2023-04-20T12:46:38;7.60;;;6.63;;
36185;SDS011;22228;53.222;7.446;2023-04-20T12:48:58;6.97;;;6.27;;
36185;SDS011;22228;53.222;7.446;2023-04-20T12:51:19;7.13;;;6.50;;
36185;SDS011;22228;53.222;7.446;2023-04-20T12:53:39;6.30;;;5.70;;
36185;SDS011;22228;53.222;7.446;2023-04-20T12:56:00;6.90;;;6.23;;
36185;SDS011;22228;53.222;7.446;2023-04-20T12:58:22;7.90;;;6.70;;
36185;SDS011;22228;53.222;7.446;2023-04-20T13:00:43;6.80;;;6.20;;
36185;SDS011;22228;53.222;7.446;2023-04-20T13:03:03;15.03;;;7.57;;
36185;SDS011;22228;53.222;7.446;2023-04-20T13:05:24;6.83;;;6.23;;
36185;SDS011;22228;53.222;7.446;2023-04-20T13:07:44;7.10;;;6.40;;
36185;SDS011;22228;53.222;7.446;2023-04-20T13:10:05;6.60;;;5.70;;
36185;SDS011;22228;53.222;7.446;2023-04-20T13:12:26;6.00;;;5.50;;
36185;SDS011;22228;53.222;7.446;2023-04-20T13:14:48;6.17;;;5.67;;
36185;SDS011;22228;53.222;7.446;2023-04-20T13:17:10;5.23;;;4.83;;
36185;SDS011;22228;53.222;7.446;2023-04-20T13:19:31;5.77;;;5.17;;
36185;SDS011;22228;53.222;7.446;2023-04-20T13:21:51;7.03;;;5.30;;
36185;SDS011;22228;53.222;7.446;2023-04-20T13:24:12;5.83;;;5.43;;
36185;SDS011;22228;53.222;7.446;2023-04-20T13:26:32;6.37;;;5.40;;
36185;SDS011;22228;53.222;7.446;2023-04-20T13:28:52;5.43;;;5.07;;
36185;SDS011;22228;53.222;7.446;2023-04-20T13:31:16;6.63;;;6.03;;
36185;SDS011;22228;53.222;7.446;2023-04-20T13:33:37;6.80;;;6.10;;
36185;SDS011;22228;53.222;7.446;2023-04-20T13:35:57;6.47;;;5.77;;
36185;SDS011;22228;53.222;7.446;2023-04-20T13:38:18;6.23;;;5.73;;
36185;SDS011;22228;53.222;7.446;2023-04-20T13:40:38;6.23;;;5.73;;
36185;SDS011;22228;53.222;7.446;2023-04-20T13:42:59;6.23;;;5.53;;
36185;SDS011;22228;53.222;7.446;2023-04-20T13:45:19;19.23;;;17.23;;
36185;SDS011;22228;53.222;7.446;2023-04-20T13:47:41;5.33;;;4.93;;
36185;SDS011;22228;53.222;7.446;2023-04-20T13:50:02;5.73;;;5.23;;
36185;SDS011;22228;53.222;7.446;2023-04-20T13:52:22;5.97;;;5.37;;
36185;SDS011;22228;53.222;7.446;2023-04-20T13:54:43;5.90;;;5.40;;
36185;SDS011;22228;53.222;7.446;2023-04-20T13:57:03;5.33;;;4.90;;
36185;SDS011;22228;53.222;7.446;2023-04-20T13:59:24;6.07;;;5.57;;
36185;SDS011;22228;53.222;7.446;2023-04-20T14:01:45;6.10;;;5.60;;
36185;SDS011;22228;53.222;7.446;2023-04-20T14:04:07;6.43;;;5.73;;
36185;SDS011;22228;53.222;7.446;2023-04-20T14:06:28;5.73;;;5.23;;
36185;SDS011;22228;53.222;7.446;2023-04-20T14:08:48;5.73;;;5.20;;
36185;SDS011;22228;53.222;7.446;2023-04-20T14:11:09;5.90;;;5.40;;
36185;SDS011;22228;53.222;7.446;2023-04-20T14:13:30;6.40;;;5.80;;
36185;SDS011;22228;53.222;7.446;2023-04-20T14:15:50;5.87;;;5.20;;
36185;SDS011;22228;53.222;7.446;2023-04-20T14:18:11;5.23;;;4.73;;
36185;SDS011;22228;53.222;7.446;2023-04-20T14:20:33;5.97;;;5.43;;
36185;SDS011;22228;53.222;7.446;2023-04-20T14:22:53;5.67;;;5.17;;
36185;SDS011;22228;53.222;7.446;2023-04-20T14:25:14;6.53;;;6.03;;
36185;SDS011;22228;53.222;7.446;2023-04-20T14:27:35;5.73;;;5.23;;
36185;SDS011;22228;53.222;7.446;2023-04-20T14:29:55;6.47;;;5.97;;
36185;SDS011;22228;53.222;7.446;2023-04-20T14:32:16;5.53;;;5.03;;
36185;SDS011;22228;53.222;7.446;2023-04-20T14:34:37;5.97;;;5.47;;
36185;SDS011;22228;53.222;7.446;2023-04-20T14:36:59;5.93;;;4.93;;
36185;SDS011;22228;53.222;7.446;2023-04-20T14:39:20;4.67;;;4.37;;
36185;SDS011;22228;53.222;7.446;2023-04-20T14:41:41;5.37;;;5.00;;
36185;SDS011;22228;53.222;7.446;2023-04-20T14:44:01;5.63;;;5.13;;
36185;SDS011;22228;53.222;7.446;2023-04-20T14:46:22;5.20;;;4.90;;
36185;SDS011;22228;53.222;7.446;2023-04-20T14:48:43;6.53;;;5.80;;
36185;SDS011;22228;53.222;7.446;2023-04-20T14:51:04;5.77;;;5.37;;
36185;SDS011;22228;53.222;7.446;2023-04-20T14:53:26;6.03;;;5.53;;
36185;SDS011;22228;53.222;7.446;2023-04-20T14:55:47;6.17;;;5.67;;
36185;SDS011;22228;53.222;7.446;2023-04-20T14:58:08;5.97;;;5.57;;
36185;SDS011;22228;53.222;7.446;2023-04-20T15:00:29;7.20;;;6.60;;
36185;SDS011;22228;53.222;7.446;2023-04-20T15:02:49;6.30;;;5.80;;
36185;SDS011;22228;53.222;7.446;2023-04-20T15:05:09;6.23;;;5.83;;
36185;SDS011;22228;53.222;7.446;2023-04-20T15:07:30;6.97;;;6.33;;
36185;SDS011;22228;53.222;7.446;2023-04-20T15:09:52;7.57;;;6.87;;
36185;SDS011;22228;53.222;7.446;2023-04-20T15:12:12;6.37;;;5.80;;
36185;SDS011;22228;53.222;7.446;2023-04-20T15:14:33;7.20;;;6.50;;
36185;SDS011;22228;53.222;7.446;2023-04-20T15:16:53;6.73;;;6.00;;
36185;SDS011;22228;53.222;7.446;2023-04-20T15:19:14;6.33;;;5.83;;
36185;SDS011;22228;53.222;7.446;2023-04-20T15:21:34;6.20;;;5.60;;
36185;SDS011;22228;53.222;7.446;2023-04-20T15:23:55;6.27;;;5.67;;
36185;SDS011;22228;53.222;7.446;2023-04-20T15:26:16;6.03;;;5.63;;
36185;SDS011;22228;53.222;7.446;2023-04-20T15:28:37;7.10;;;5.87;;
36185;SDS011;22228;53.222;7.446;2023-04-20T15:30:57;7.10;;;5.40;;
36185;SDS011;22228;53.222;7.446;2023-04-20T15:33:18;5.70;;;5.10;;
36185;SDS011;22228;53.222;7.446;2023-04-20T15:35:39;5.73;;;5.13;;
36185;SDS011;22228;53.222;7.446;2023-04-20T15:37:59;6.60;;;6.00;;
36185;SDS011;22228;53.222;7.446;2023-04-20T15:40:20;6.53;;;5.87;;
36185;SDS011;22228;53.222;7.446;2023-04-20T15:42:42;5.70;;;5.30;;
36185;SDS011;22228;53.222;7.446;2023-04-20T15:45:02;5.87;;;5.37;;
36185;SDS011;22228;53.222;7.446;2023-04-20T15:47:23;7.03;;;5.20;;
36185;SDS011;22228;53.222;7.446;2023-04-20T15:49:44;5.87;;;5.37;;
36185;SDS011;22228;53.222;7.446;2023-04-20T15:52:04;5.77;;;5.33;;
36185;SDS011;22228;53.222;7.446;2023-04-20T15:54:25;5.90;;;5.40;;
36185;SDS011;22228;53.222;7.446;2023-04-20T15:56:46;5.80;;;5.30;;
36185;SDS011;22228;53.222;7.446;2023-04-20T15:59:08;5.67;;;5.17;;
36185;SDS011;22228;53.222;7.446;2023-04-20T16:01:28;5.93;;;5.40;;
36185;SDS011;22228;53.222;7.446;2023-04-20T16:03:48;6.20;;;5.67;;
36185;SDS011;22228;53.222;7.446;2023-04-20T16:06:09;7.03;;;5.60;;
36185;SDS011;22228;53.222;7.446;2023-04-20T16:08:30;5.70;;;5.17;;
36185;SDS011;22228;53.222;7.446;2023-04-20T16:10:50;5.57;;;5.03;;
36185;SDS011;22228;53.222;7.446;2023-04-20T16:13:12;6.43;;;5.83;;
36185;SDS011;22228;53.222;7.446;2023-04-20T16:15:34;6.47;;;5.83;;
36185;SDS011;22228;53.222;7.446;2023-04-20T16:17:54;6.87;;;6.13;;
36185;SDS011;22228;53.222;7.446;2023-04-20T16:20:15;7.03;;;5.93;;
36185;SDS011;22228;53.222;7.446;2023-04-20T16:22:35;7.87;;;6.03;;
36185;SDS011;22228;53.222;7.446;2023-04-20T16:24:55;5.97;;;5.47;;
36185;SDS011;22228;53.222;7.446;2023-04-20T16:27:16;6.50;;;6.00;;
36185;SDS011;22228;53.222;7.446;2023-04-20T16:29:37;7.07;;;5.73;;
36185;SDS011;22228;53.222;7.446;2023-04-20T16:31:58;6.80;;;6.20;;
36185;SDS011;22228;53.222;7.446;2023-04-20T16:34:19;6.60;;;6.00;;
36185;SDS011;22228;53.222;7.446;2023-04-20T16:36:39;9.93;;;9.00;;
36185;SDS011;22228;53.222;7.446;2023-04-20T16:39:00;7.43;;;6.73;;
36185;SDS011;22228;53.222;7.446;2023-04-20T16:41:23;6.83;;;6.23;;
36185;SDS011;22228;53.222;7.446;2023-04-20T16:43:44;7.43;;;6.80;;
36185;SDS011;22228;53.222;7.446;2023-04-20T16:46:09;7.47;;;6.77;;
36185;SDS011;22228;53.222;7.446;2023-04-20T16:48:31;7.67;;;6.90;;
36185;SDS011;22228;53.222;7.446;2023-04-20T16:50:52;8.60;;;7.80;;
36185;SDS011;22228;53.222;7.446;2023-04-20T16:55:43;8.03;;;7.23;;
36185;SDS011;22228;53.222;7.446;2023-04-20T16:58:04;8.83;;;7.80;;
36185;SDS011;22228;53.222;7.446;2023-04-20T17:00:25;8.33;;;7.17;;
36185;SDS011;22228;53.222;7.446;2023-04-20T17:02:46;11.20;;;8.83;;
36185;SDS011;22228;53.222;7.446;2023-04-20T17:05:08;8.97;;;8.07;;